Time;durP1;ratioP1;P1;durP2;ratioP2;P2;SDS_P1;SDS_P2;PMS_P1;PMS_P2;Temp;Humidity;BMP_temperature;BMP_pressure;BME280_temperature;BME280_humidity;BME280_pressure;Samples;Min_cycle;Max_cycle;Signal;HPM_P1;HPM_P2
2021/12/22 00:09:15;;;;;;;26.90;11.63;;;-0.90;88.30;;;;;;20837113;28;20263;-69
2021/12/22 00:19:17;;;;;;;23.97;11.60;;;-0.90;88.00;;;;;;20836789;28;20209;-76
2021/12/22 00:29:19;;;;;;;23.70;11.73;;;-1.10;87.10;;;;;;20835478;28;20305;-64
2021/12/22 00:39:21;;;;;;;20.37;11.33;;;-1.20;87.70;;;;;;20833799;28;20287;-62
2021/12/22 00:49:22;;;;;;;20.43;10.67;;;-1.10;88.20;;;;;;20834325;28;20283;-62
2021/12/22 00:59:24;;;;;;;22.13;10.90;;;-1.00;87.10;;;;;;20832424;28;20267;-68
2021/12/22 01:09:26;;;;;;;25.57;10.60;;;-1.00;87.60;;;;;;20831984;28;20237;-63
2021/12/22 01:20:00;;;;;;;21.87;10.60;;;-1.10;87.10;;;;;;20831536;28;20208;-64
2021/12/22 01:29:51;;;;;;;28.03;10.70;;;-1.10;87.50;;;;;;20828744;28;20714;-64
2021/12/22 01:39:53;;;;;;;19.63;10.20;;;-1.20;86.80;;;;;;20830583;28;20237;-63
2021/12/22 01:49:55;;;;;;;20.83;10.90;;;-1.20;87.50;;;;;;20830499;28;20228;-75
2021/12/22 01:59:56;;;;;;;27.53;12.00;;;-1.20;87.00;;;;;;20829589;28;20213;-73
2021/12/22 02:10:09;;;;;;;29.43;11.43;;;-1.30;86.90;;;;;;20829336;28;20236;-75
2021/12/22 02:20:12;;;;;;;22.70;11.07;;;-1.40;86.60;;;;;;20829515;28;20652;-63
2021/12/22 02:30:21;;;;;;;23.30;10.30;;;-1.40;87.30;;;;;;20828726;28;20651;-63
2021/12/22 02:40:27;;;;;;;22.43;10.03;;;-1.30;87.10;;;;;;20827964;28;20245;-63
2021/12/22 02:50:29;;;;;;;25.07;11.30;;;-1.40;86.80;;;;;;20828308;28;20758;-64
2021/12/22 03:10:34;;;;;;;20.87;9.97;;;-1.30;87.60;;;;;;20839033;28;20328;-64
2021/12/22 03:20:36;;;;;;;23.40;11.20;;;-1.30;87.30;;;;;;20840714;28;20266;-64
2021/12/22 03:30:38;;;;;;;23.77;11.20;;;-1.20;86.50;;;;;;20837977;28;20208;-63
2021/12/22 03:40:40;;;;;;;21.17;11.60;;;-1.20;86.70;;;;;;20839395;28;20723;-64
2021/12/22 03:50:42;;;;;;;27.97;12.40;;;-1.20;87.10;;;;;;20839012;28;20208;-63
2021/12/22 04:00:44;;;;;;;32.87;12.97;;;-1.20;87.30;;;;;;20838389;28;20687;-64
2021/12/22 04:10:48;;;;;;;33.20;12.33;;;-1.20;87.00;;;;;;20837121;28;20213;-64
2021/12/22 04:20:51;;;;;;;39.20;13.50;;;-1.20;87.80;;;;;;20836324;28;20205;-63
2021/12/22 04:30:52;;;;;;;30.33;12.47;;;-1.20;87.80;;;;;;20835776;28;20209;-63
2021/12/22 04:40:54;;;;;;;29.27;13.30;;;-1.20;88.10;;;;;;20834326;28;20320;-63
2021/12/22 04:50:56;;;;;;;37.40;14.60;;;-1.20;87.50;;;;;;20832938;28;20217;-62
2021/12/22 05:00:58;;;;;;;32.43;13.73;;;-1.40;87.70;;;;;;20833862;28;20274;-63
2021/12/22 05:10:59;;;;;;;42.33;14.57;;;-1.50;87.40;;;;;;20832519;28;20263;-66
2021/12/22 05:21:01;;;;;;;29.37;13.20;;;-1.50;87.60;;;;;;20830814;28;20217;-74
2021/12/22 05:31:03;;;;;;;31.37;12.90;;;-1.50;88.10;;;;;;20828642;28;21099;-73
2021/12/22 05:41:05;;;;;;;34.00;14.07;;;-1.50;88.70;;;;;;20830122;28;20290;-63
2021/12/22 05:51:07;;;;;;;50.83;14.73;;;-1.60;88.60;;;;;;20829845;28;20239;-63
2021/12/22 06:01:09;;;;;;;46.75;17.13;;;-1.60;88.60;;;;;;20827459;28;21106;-63
2021/12/22 06:11:10;;;;;;;20.63;11.03;;;-1.40;89.10;;;;;;20828926;28;20782;-64
2021/12/22 06:21:13;;;;;;;21.30;11.07;;;-2.20;86.70;;;;;;20828286;28;20266;-63
2021/12/22 06:31:15;;;;;;;31.80;12.40;;;-2.20;87.40;;;;;;20828139;28;20246;-68
2021/12/22 06:41:16;;;;;;;31.90;11.90;;;-1.90;87.80;;;;;;20833181;28;20598;-64
2021/12/22 06:51:18;;;;;;;32.37;12.00;;;-2.00;87.10;;;;;;20842882;28;20205;-69
2021/12/22 07:01:22;;;;;;;29.20;13.90;;;-2.10;86.10;;;;;;20842695;28;20306;-73
2021/12/22 07:11:24;;;;;;;32.43;14.47;;;-2.10;86.70;;;;;;20841168;28;20206;-63
2021/12/22 07:25:04;;;;;;;30.20;14.20;;;-1.90;86.10;;;;;;21016006;28;20569;-61
2021/12/22 07:35:24;;;;;;;31.63;15.07;;;-2.00;85.90;;;;;;20981486;28;20212;-61
2021/12/22 07:45:26;;;;;;;31.80;14.97;;;-2.00;85.90;;;;;;20982141;28;20804;-63
2021/12/22 07:55:28;;;;;;;31.17;15.40;;;-1.90;86.30;;;;;;20981147;28;20223;-72
2021/12/22 08:05:30;;;;;;;35.77;14.57;;;-1.90;85.90;;;;;;20979885;28;20619;-62
2021/12/22 08:15:31;;;;;;;34.67;15.60;;;-1.90;85.70;;;;;;20979501;28;20235;-62
2021/12/22 08:25:33;;;;;;;38.20;16.77;;;-1.90;86.20;;;;;;20978376;28;20208;-61
2021/12/22 08:38:50;;;;;;;46.70;17.97;;;-1.90;86.20;;;;;;20927080;28;20714;-61
2021/12/22 08:45:58;;;;;;;36.37;16.93;;;-1.70;85.80;;;;;;20923608;28;20221;-62
2021/12/22 08:56:00;;;;;;;38.37;17.60;;;-1.60;86.40;;;;;;20921424;28;20257;-62
2021/12/22 09:06:02;;;;;;;34.33;15.97;;;-1.50;86.50;;;;;;20920390;28;20208;-63
2021/12/22 09:16:05;;;;;;;42.57;16.87;;;-1.40;86.80;;;;;;20920014;28;20739;-63
2021/12/22 09:26:07;;;;;;;39.30;16.80;;;-1.20;87.30;;;;;;20916708;28;20262;-71
2021/12/22 09:36:11;;;;;;;37.93;15.50;;;-0.70;87.10;;;;;;20917403;28;20294;-72
2021/12/22 09:46:17;;;;;;;35.97;15.70;;;-0.70;87.70;;;;;;20917115;28;20261;-66
2021/12/22 09:56:23;;;;;;;41.57;17.73;;;-0.60;88.00;;;;;;20917015;28;20240;-65
2021/12/22 10:06:26;;;;;;;41.43;18.20;;;-0.20;88.30;;;;;;20915976;28;20209;-68
2021/12/22 10:16:29;;;;;;;36.83;18.33;;;0.10;87.70;;;;;;20915769;28;20782;-65
2021/12/22 10:26:32;;;;;;;49.33;19.70;;;0.30;87.40;;;;;;20914678;28;20236;-66
2021/12/22 10:36:51;;;;;;;34.83;18.07;;;0.50;88.10;;;;;;20913616;28;20234;-64
2021/12/22 10:46:52;;;;;;;38.10;18.57;;;0.70;88.20;;;;;;20913563;28;20615;-67
2021/12/22 10:56:57;;;;;;;34.33;17.87;;;0.90;88.10;;;;;;20912224;28;20243;-65
2021/12/22 11:07:20;;;;;;;32.33;16.77;;;1.10;87.90;;;;;;20912316;28;20211;-68
2021/12/22 11:17:22;;;;;;;33.70;16.60;;;1.10;88.40;;;;;;20911674;28;20239;-70
2021/12/22 11:27:27;;;;;;;32.37;16.23;;;1.40;88.20;;;;;;20906750;28;20676;-70
2021/12/22 11:37:29;;;;;;;32.37;22.87;;;1.80;88.60;;;;;;20905115;28;20522;-74
2021/12/22 11:47:43;;;;;;;31.63;17.17;;;2.50;87.40;;;;;;20910871;28;20204;-73
2021/12/22 11:57:51;;;;;;;31.20;17.63;;;2.20;87.50;;;;;;20910329;28;20637;-71
2021/12/22 12:07:58;;;;;;;32.50;17.30;;;2.40;87.60;;;;;;20918824;28;20210;-64
2021/12/22 12:28:21;;;;;;;27.87;16.33;;;3.00;87.00;;;;;;20923824;28;20337;-68
2021/12/22 12:38:41;;;;;;;25.43;14.17;;;3.20;86.60;;;;;;20922921;28;20706;-63
2021/12/22 12:48:43;;;;;;;26.37;14.93;;;3.60;85.50;;;;;;20922620;28;20239;-62
2021/12/22 12:59:01;;;;;;;31.20;16.23;;;3.60;85.90;;;;;;20917526;28;20243;-65
2021/12/22 13:09:03;;;;;;;24.73;14.63;;;3.50;85.30;;;;;;20920615;28;20208;-65
2021/12/22 13:19:05;;;;;;;31.83;15.77;;;3.40;84.90;;;;;;20919703;28;20244;-64
2021/12/22 13:29:13;;;;;;;22.17;13.70;;;3.40;85.10;;;;;;20919222;28;20295;-67
2021/12/22 13:39:15;;;;;;;19.57;12.30;;;3.40;85.70;;;;;;20918248;28;20231;-72
2021/12/22 13:49:17;;;;;;;20.90;13.37;;;3.60;85.20;;;;;;20917345;28;20242;-72
2021/12/22 13:59:23;;;;;;;26.57;13.00;;;3.70;84.10;;;;;;20896159;28;20288;-71
2021/12/22 14:09:30;;;;;;;25.47;12.10;;;3.70;83.60;;;;;;20996925;28;20294;-71
2021/12/22 14:19:51;;;;;;;22.97;12.37;;;3.70;82.90;;;;;;20997153;28;20270;-70
2021/12/22 14:29:53;;;;;;;20.93;11.53;;;3.70;82.90;;;;;;20996827;28;20203;-71
2021/12/22 14:39:57;;;;;;;21.00;12.93;;;3.60;82.50;;;;;;20996756;28;20384;-70
2021/12/22 14:49:58;;;;;;;22.60;13.47;;;3.60;82.30;;;;;;20996444;28;20210;-64
2021/12/22 15:00:00;;;;;;;22.57;13.10;;;3.50;82.30;;;;;;20996005;28;20747;-64
2021/12/22 15:10:02;;;;;;;25.77;13.67;;;3.30;82.60;;;;;;20995080;28;20252;-62
2021/12/22 15:20:11;;;;;;;25.63;13.47;;;3.10;82.30;;;;;;20994447;28;20289;-62
2021/12/22 15:30:13;;;;;;;22.67;13.00;;;3.10;83.00;;;;;;20994684;28;20548;-61
2021/12/22 15:40:15;;;;;;;23.17;13.97;;;2.80;83.10;;;;;;20936841;28;20276;-64
2021/12/22 15:50:17;;;;;;;24.07;14.83;;;2.60;83.20;;;;;;20925398;28;20215;-66
2021/12/22 16:00:24;;;;;;;27.70;17.03;;;2.50;84.30;;;;;;20924346;28;20235;-62
2021/12/22 16:10:27;;;;;;;26.00;15.90;;;2.30;84.70;;;;;;20925379;28;20204;-63
2021/12/22 16:20:28;;;;;;;31.60;15.23;;;2.10;85.40;;;;;;20923756;28;20308;-70
2021/12/22 16:30:30;;;;;;;25.20;15.50;;;1.90;85.70;;;;;;20922780;28;20267;-65
2021/12/22 16:40:33;;;;;;;29.93;16.87;;;1.90;85.90;;;;;;20922979;28;20243;-62
2021/12/22 16:50:35;;;;;;;32.00;16.27;;;1.90;86.80;;;;;;20917992;28;20207;-73
2021/12/22 17:00:37;;;;;;;36.80;18.20;;;1.90;86.90;;;;;;20919917;28;20693;-65
2021/12/22 17:10:39;;;;;;;40.33;18.93;;;1.70;87.30;;;;;;20920138;28;20579;-71
2021/12/22 17:20:41;;;;;;;36.07;20.07;;;1.50;88.20;;;;;;20920498;28;20250;-73
2021/12/22 17:30:43;;;;;;;34.10;18.60;;;1.50;88.40;;;;;;20920224;28;20218;-74
2021/12/22 17:40:45;;;;;;;34.40;20.00;;;1.50;88.60;;;;;;20951309;28;20230;-76
2021/12/22 17:50:47;;;;;;;30.57;19.03;;;1.50;89.10;;;;;;20918306;28;20206;-68
2021/12/22 18:00:50;;;;;;;30.10;17.80;;;1.50;89.10;;;;;;20916873;28;20234;-63
2021/12/22 18:10:52;;;;;;;32.10;16.40;;;1.40;88.60;;;;;;20916696;28;20245;-71
2021/12/22 18:20:54;;;;;;;34.23;18.40;;;1.40;89.70;;;;;;20915731;28;20765;-65
2021/12/22 18:30:56;;;;;;;34.67;18.10;;;1.40;90.10;;;;;;20915718;28;20213;-70
2021/12/22 18:41:02;;;;;;;29.97;17.13;;;1.30;90.20;;;;;;20914333;28;20273;-67
2021/12/22 18:51:04;;;;;;;36.63;18.00;;;1.20;90.30;;;;;;20912664;28;20210;-64
2021/12/22 19:01:06;;;;;;;36.73;19.00;;;1.10;90.40;;;;;;20909853;28;20631;-65
2021/12/22 19:11:08;;;;;;;31.83;18.13;;;1.00;90.40;;;;;;20910172;28;20718;-68
2021/12/22 19:21:10;;;;;;;33.33;17.93;;;1.00;90.50;;;;;;20911822;28;20271;-63
2021/12/22 19:31:12;;;;;;;43.53;20.03;;;0.80;90.40;;;;;;20912047;28;20661;-64
2021/12/22 19:41:13;;;;;;;34.83;19.77;;;0.70;90.30;;;;;;20911477;28;20266;-69
2021/12/22 19:51:15;;;;;;;40.27;19.97;;;0.80;90.50;;;;;;20910978;28;20262;-64
2021/12/22 20:01:17;;;;;;;38.33;20.93;;;0.80;90.40;;;;;;20909078;28;20231;-64
2021/12/22 20:11:19;;;;;;;42.70;21.07;;;0.70;90.50;;;;;;20908063;28;20210;-64
2021/12/22 20:21:22;;;;;;;39.73;21.77;;;0.60;90.40;;;;;;20907415;28;20250;-64
2021/12/22 20:31:24;;;;;;;44.10;22.67;;;0.40;90.30;;;;;;20920134;28;20605;-66
2021/12/22 20:41:25;;;;;;;43.40;22.27;;;0.30;90.20;;;;;;20921840;28;20245;-69
2021/12/22 20:51:27;;;;;;;44.40;22.43;;;0.20;90.10;;;;;;20919310;28;20467;-70
2021/12/22 21:01:32;;;;;;;46.17;32.25;;;0.10;90.10;;;;;;20916553;28;21004;-66
2021/12/22 21:11:37;;;;;;;52.33;24.50;;;0.20;90.10;;;;;;20915912;28;20264;-66
2021/12/22 21:21:38;;;;;;;46.07;23.30;;;0.00;89.70;;;;;;20917955;28;20251;-65
2021/12/22 21:31:41;;;;;;;51.03;23.47;;;0.00;90.00;;;;;;20916961;28;20547;-69
2021/12/22 21:41:42;;;;;;;35.60;20.53;;;-0.30;88.90;;;;;;20916584;28;20285;-68
2021/12/22 21:51:45;;;;;;;41.30;21.93;;;-0.30;88.90;;;;;;20916119;28;20204;-67
2021/12/22 22:01:46;;;;;;;45.03;22.33;;;-0.30;88.80;;;;;;20915512;28;20292;-65
2021/12/22 22:11:51;;;;;;;44.87;23.40;;;-0.40;88.90;;;;;;20914483;28;20262;-65
2021/12/22 22:21:52;;;;;;;49.43;24.30;;;-0.50;89.00;;;;;;20913347;28;20251;-66
2021/12/22 22:31:54;;;;;;;45.07;22.57;;;-0.50;88.70;;;;;;20912288;28;20212;-67
2021/12/22 22:41:59;;;;;;;40.07;20.90;;;-0.70;88.40;;;;;;20912260;28;20330;-65
2021/12/22 22:52:01;;;;;;;43.30;22.10;;;-0.70;88.90;;;;;;20910838;28;20640;-67
2021/12/22 23:02:03;;;;;;;43.30;21.73;;;-0.80;88.30;;;;;;20909483;28;20285;-65
2021/12/22 23:12:06;;;;;;;40.33;21.63;;;-0.70;88.30;;;;;;20907979;28;20327;-66
2021/12/22 23:22:07;;;;;;;37.90;20.47;;;-0.70;88.00;;;;;;20902982;28;20239;-70
2021/12/22 23:32:09;;;;;;;40.00;19.67;;;-0.70;88.30;;;;;;20910211;28;20212;-68
2021/12/22 23:42:29;;;;;;;37.00;20.23;;;-0.70;88.70;;;;;;20911807;28;20235;-66
2021/12/22 23:52:31;;;;;;;34.97;20.17;;;-0.70;88.60;;;;;;20911521;28;20216;-66
